sensor_id;sensor_type;location;lat;lon;timestamp;temperature;humidity
46816;DHT22;32787;53.316;8.670;2024-02-16T00:00:23;10.70;94.60
46816;DHT22;32787;53.316;8.670;2024-02-16T00:02:49;10.80;94.60
46816;DHT22;32787;53.316;8.670;2024-02-16T00:05:15;10.70;94.60
46816;DHT22;32787;53.316;8.670;2024-02-16T00:07:41;10.80;94.40
46816;DHT22;32787;53.316;8.670;2024-02-16T00:10:07;10.80;94.20
46816;DHT22;32787;53.316;8.670;2024-02-16T00:12:33;10.80;94.30
46816;DHT22;32787;53.316;8.670;2024-02-16T00:15:00;10.80;94.30
46816;DHT22;32787;53.316;8.670;2024-02-16T00:17:26;10.80;94.10
46816;DHT22;32787;53.316;8.670;2024-02-16T00:19:55;10.70;94.30
46816;DHT22;32787;53.316;8.670;2024-02-16T00:22:22;10.80;94.20
46816;DHT22;32787;53.316;8.670;2024-02-16T00:24:48;10.70;94.00
46816;DHT22;32787;53.316;8.670;2024-02-16T00:27:14;10.80;94.20
46816;DHT22;32787;53.316;8.670;2024-02-16T00:29:40;10.60;94.00
46816;DHT22;32787;53.316;8.670;2024-02-16T00:32:06;10.60;94.20
46816;DHT22;32787;53.316;8.670;2024-02-16T00:34:32;10.50;94.40
46816;DHT22;32787;53.316;8.670;2024-02-16T00:36:58;10.50;94.40
46816;DHT22;32787;53.316;8.670;2024-02-16T00:39:24;10.60;94.60
46816;DHT22;32787;53.316;8.670;2024-02-16T00:41:50;10.60;94.50
46816;DHT22;32787;53.316;8.670;2024-02-16T00:44:16;10.80;94.30
46816;DHT22;32787;53.316;8.670;2024-02-16T00:46:43;10.70;94.10
46816;DHT22;32787;53.316;8.670;2024-02-16T00:49:09;10.60;94.20
46816;DHT22;32787;53.316;8.670;2024-02-16T00:51:38;10.60;94.20
46816;DHT22;32787;53.316;8.670;2024-02-16T00:54:04;10.60;94.10
46816;DHT22;32787;53.316;8.670;2024-02-16T00:56:31;10.60;94.00
46816;DHT22;32787;53.316;8.670;2024-02-16T00:58:57;10.60;94.10
46816;DHT22;32787;53.316;8.670;2024-02-16T01:01:23;10.60;94.10
46816;DHT22;32787;53.316;8.670;2024-02-16T01:03:50;10.50;94.10
46816;DHT22;32787;53.316;8.670;2024-02-16T01:06:17;10.50;94.20
46816;DHT22;32787;53.316;8.670;2024-02-16T01:08:43;10.50;94.40
46816;DHT22;32787;53.316;8.670;2024-02-16T01:11:09;10.50;94.30
46816;DHT22;32787;53.316;8.670;2024-02-16T01:13:35;10.50;94.40
46816;DHT22;32787;53.316;8.670;2024-02-16T01:16:00;10.50;94.20
46816;DHT22;32787;53.316;8.670;2024-02-16T01:18:28;10.60;94.20
46816;DHT22;32787;53.316;8.670;2024-02-16T01:20:54;10.50;94.10
46816;DHT22;32787;53.316;8.670;2024-02-16T01:23:20;10.40;94.20
46816;DHT22;32787;53.316;8.670;2024-02-16T01:25:46;10.50;94.30
46816;DHT22;32787;53.316;8.670;2024-02-16T01:28:12;10.40;94.20
46816;DHT22;32787;53.316;8.670;2024-02-16T01:30:39;10.50;94.20
46816;DHT22;32787;53.316;8.670;2024-02-16T01:33:05;10.70;94.00
46816;DHT22;32787;53.316;8.670;2024-02-16T01:35:32;10.50;93.80
46816;DHT22;32787;53.316;8.670;2024-02-16T01:37:58;10.40;93.90
46816;DHT22;32787;53.316;8.670;2024-02-16T01:40:23;10.40;94.20
46816;DHT22;32787;53.316;8.670;2024-02-16T01:42:52;10.40;94.30
46816;DHT22;32787;53.316;8.670;2024-02-16T01:45:20;10.40;94.20
46816;DHT22;32787;53.316;8.670;2024-02-16T01:47:49;10.40;94.20
46816;DHT22;32787;53.316;8.670;2024-02-16T01:50:15;10.40;94.00
46816;DHT22;32787;53.316;8.670;2024-02-16T01:52:45;10.40;94.00
46816;DHT22;32787;53.316;8.670;2024-02-16T01:55:12;10.40;94.20
46816;DHT22;32787;53.316;8.670;2024-02-16T01:57:39;10.50;93.90
46816;DHT22;32787;53.316;8.670;2024-02-16T02:00:06;10.40;93.90
46816;DHT22;32787;53.316;8.670;2024-02-16T02:02:34;10.50;93.80
46816;DHT22;32787;53.316;8.670;2024-02-16T02:05:00;10.40;93.80
46816;DHT22;32787;53.316;8.670;2024-02-16T02:07:26;10.50;93.70
46816;DHT22;32787;53.316;8.670;2024-02-16T02:09:52;10.60;93.70
46816;DHT22;32787;53.316;8.670;2024-02-16T02:12:18;10.50;93.40
46816;DHT22;32787;53.316;8.670;2024-02-16T02:14:44;10.60;93.50
46816;DHT22;32787;53.316;8.670;2024-02-16T02:17:10;10.50;93.50
46816;DHT22;32787;53.316;8.670;2024-02-16T02:19:35;10.50;93.60
46816;DHT22;32787;53.316;8.670;2024-02-16T02:22:01;10.50;93.50
46816;DHT22;32787;53.316;8.670;2024-02-16T02:24:27;10.80;93.40
46816;DHT22;32787;53.316;8.670;2024-02-16T02:26:53;10.60;92.70
46816;DHT22;32787;53.316;8.670;2024-02-16T02:29:18;10.50;93.10
46816;DHT22;32787;53.316;8.670;2024-02-16T02:31:45;10.60;93.20
46816;DHT22;32787;53.316;8.670;2024-02-16T02:34:11;10.50;93.20
46816;DHT22;32787;53.316;8.670;2024-02-16T02:36:37;10.50;93.50
46816;DHT22;32787;53.316;8.670;2024-02-16T02:39:03;10.70;93.20
46816;DHT22;32787;53.316;8.670;2024-02-16T02:41:28;10.70;93.00
46816;DHT22;32787;53.316;8.670;2024-02-16T02:43:54;10.60;93.10
46816;DHT22;32787;53.316;8.670;2024-02-16T02:46:22;10.60;93.30
46816;DHT22;32787;53.316;8.670;2024-02-16T02:48:51;10.70;92.90
46816;DHT22;32787;53.316;8.670;2024-02-16T02:51:19;10.60;92.80
46816;DHT22;32787;53.316;8.670;2024-02-16T02:53:45;10.60;92.90
46816;DHT22;32787;53.316;8.670;2024-02-16T02:56:10;10.50;93.10
46816;DHT22;32787;53.316;8.670;2024-02-16T02:58:39;10.50;93.20
46816;DHT22;32787;53.316;8.670;2024-02-16T03:01:04;10.60;93.00
46816;DHT22;32787;53.316;8.670;2024-02-16T03:03:33;10.60;93.00
46816;DHT22;32787;53.316;8.670;2024-02-16T03:05:59;10.50;92.90
46816;DHT22;32787;53.316;8.670;2024-02-16T03:08:25;10.70;92.80
46816;DHT22;32787;53.316;8.670;2024-02-16T03:10:50;10.50;93.00
46816;DHT22;32787;53.316;8.670;2024-02-16T03:13:17;10.50;93.00
46816;DHT22;32787;53.316;8.670;2024-02-16T03:15:44;10.50;93.00
46816;DHT22;32787;53.316;8.670;2024-02-16T03:18:10;10.50;93.10
46816;DHT22;32787;53.316;8.670;2024-02-16T03:20:36;10.40;93.10
46816;DHT22;32787;53.316;8.670;2024-02-16T03:23:02;10.40;93.20
46816;DHT22;32787;53.316;8.670;2024-02-16T03:25:28;10.40;93.30
46816;DHT22;32787;53.316;8.670;2024-02-16T03:27:54;10.30;93.30
46816;DHT22;32787;53.316;8.670;2024-02-16T03:30:20;10.20;93.50
46816;DHT22;32787;53.316;8.670;2024-02-16T03:32:49;10.20;93.70
46816;DHT22;32787;53.316;8.670;2024-02-16T03:35:16;10.10;93.80
46816;DHT22;32787;53.316;8.670;2024-02-16T03:37:42;10.10;93.90
46816;DHT22;32787;53.316;8.670;2024-02-16T03:40:08;10.10;94.00
46816;DHT22;32787;53.316;8.670;2024-02-16T03:42:35;10.10;94.00
46816;DHT22;32787;53.316;8.670;2024-02-16T03:45:04;10.00;94.00
46816;DHT22;32787;53.316;8.670;2024-02-16T03:47:29;10.00;94.10
46816;DHT22;32787;53.316;8.670;2024-02-16T03:49:55;10.00;94.20
46816;DHT22;32787;53.316;8.670;2024-02-16T03:52:21;10.00;94.20
46816;DHT22;32787;53.316;8.670;2024-02-16T03:54:46;9.90;94.00
46816;DHT22;32787;53.316;8.670;2024-02-16T03:57:16;9.90;94.20
46816;DHT22;32787;53.316;8.670;2024-02-16T03:59:44;9.90;94.20
46816;DHT22;32787;53.316;8.670;2024-02-16T04:02:10;9.90;94.20
46816;DHT22;32787;53.316;8.670;2024-02-16T04:04:36;9.80;94.30
46816;DHT22;32787;53.316;8.670;2024-02-16T04:07:02;9.80;94.40
46816;DHT22;32787;53.316;8.670;2024-02-16T04:09:28;9.80;94.40
46816;DHT22;32787;53.316;8.670;2024-02-16T04:11:54;9.70;94.40
46816;DHT22;32787;53.316;8.670;2024-02-16T04:14:19;9.70;94.40
46816;DHT22;32787;53.316;8.670;2024-02-16T04:16:45;9.60;94.50
46816;DHT22;32787;53.316;8.670;2024-02-16T04:19:10;9.60;94.60
46816;DHT22;32787;53.316;8.670;2024-02-16T04:21:36;9.60;94.60
46816;DHT22;32787;53.316;8.670;2024-02-16T04:24:02;9.60;94.70
46816;DHT22;32787;53.316;8.670;2024-02-16T04:26:28;9.70;94.40
46816;DHT22;32787;53.316;8.670;2024-02-16T04:28:54;9.70;94.30
46816;DHT22;32787;53.316;8.670;2024-02-16T04:31:20;9.60;94.20
46816;DHT22;32787;53.316;8.670;2024-02-16T04:33:45;9.50;94.30
46816;DHT22;32787;53.316;8.670;2024-02-16T04:36:11;9.60;94.30
46816;DHT22;32787;53.316;8.670;2024-02-16T04:38:37;9.50;94.30
46816;DHT22;32787;53.316;8.670;2024-02-16T04:41:05;9.50;94.40
46816;DHT22;32787;53.316;8.670;2024-02-16T04:43:30;9.40;94.40
46816;DHT22;32787;53.316;8.670;2024-02-16T04:45:56;9.40;94.40
46816;DHT22;32787;53.316;8.670;2024-02-16T04:48:21;9.30;94.30
46816;DHT22;32787;53.316;8.670;2024-02-16T04:50:47;9.20;94.30
46816;DHT22;32787;53.316;8.670;2024-02-16T04:53:13;9.10;94.40
46816;DHT22;32787;53.316;8.670;2024-02-16T04:55:38;8.90;94.40
46816;DHT22;32787;53.316;8.670;2024-02-16T04:58:04;8.70;94.50
46816;DHT22;32787;53.316;8.670;2024-02-16T05:00:38;8.70;95.00
46816;DHT22;32787;53.316;8.670;2024-02-16T05:03:04;8.70;95.20
46816;DHT22;32787;53.316;8.670;2024-02-16T05:05:30;8.70;95.30
46816;DHT22;32787;53.316;8.670;2024-02-16T05:07:58;8.50;95.20
46816;DHT22;32787;53.316;8.670;2024-02-16T05:10:24;8.40;95.40
46816;DHT22;32787;53.316;8.670;2024-02-16T05:12:50;8.40;95.30
46816;DHT22;32787;53.316;8.670;2024-02-16T05:15:15;8.30;95.30
46816;DHT22;32787;53.316;8.670;2024-02-16T05:17:42;8.20;95.30
46816;DHT22;32787;53.316;8.670;2024-02-16T05:20:12;8.20;95.50
46816;DHT22;32787;53.316;8.670;2024-02-16T05:22:44;8.10;95.60
46816;DHT22;32787;53.316;8.670;2024-02-16T05:25:11;8.10;95.60
46816;DHT22;32787;53.316;8.670;2024-02-16T05:27:38;8.10;95.80
46816;DHT22;32787;53.316;8.670;2024-02-16T05:30:04;8.10;95.90
46816;DHT22;32787;53.316;8.670;2024-02-16T05:32:36;8.10;96.00
46816;DHT22;32787;53.316;8.670;2024-02-16T05:35:03;8.30;96.00
46816;DHT22;32787;53.316;8.670;2024-02-16T05:37:57;8.30;96.10
46816;DHT22;32787;53.316;8.670;2024-02-16T05:40:23;8.40;96.00
46816;DHT22;32787;53.316;8.670;2024-02-16T05:42:54;8.40;95.80
46816;DHT22;32787;53.316;8.670;2024-02-16T05:45:23;8.40;95.80
46816;DHT22;32787;53.316;8.670;2024-02-16T05:47:50;8.40;95.80
46816;DHT22;32787;53.316;8.670;2024-02-16T05:50:16;8.70;95.90
46816;DHT22;32787;53.316;8.670;2024-02-16T05:52:42;8.70;95.60
46816;DHT22;32787;53.316;8.670;2024-02-16T05:55:09;8.90;95.40
46816;DHT22;32787;53.316;8.670;2024-02-16T05:57:36;8.80;95.20
46816;DHT22;32787;53.316;8.670;2024-02-16T06:00:06;8.80;95.10
46816;DHT22;32787;53.316;8.670;2024-02-16T06:02:33;8.90;95.10
46816;DHT22;32787;53.316;8.670;2024-02-16T06:05:02;8.90;95.20
46816;DHT22;32787;53.316;8.670;2024-02-16T06:07:32;9.00;95.00
46816;DHT22;32787;53.316;8.670;2024-02-16T06:09:57;9.10;94.90
46816;DHT22;32787;53.316;8.670;2024-02-16T06:12:23;9.30;94.60
46816;DHT22;32787;53.316;8.670;2024-02-16T06:14:50;9.30;94.00
46816;DHT22;32787;53.316;8.670;2024-02-16T06:17:16;9.30;94.10
46816;DHT22;32787;53.316;8.670;2024-02-16T06:19:42;9.20;93.60
46816;DHT22;32787;53.316;8.670;2024-02-16T06:22:08;9.20;93.60
46816;DHT22;32787;53.316;8.670;2024-02-16T06:24:34;9.10;93.70
46816;DHT22;32787;53.316;8.670;2024-02-16T06:27:00;9.00;93.80
46816;DHT22;32787;53.316;8.670;2024-02-16T06:29:26;8.80;94.00
46816;DHT22;32787;53.316;8.670;2024-02-16T06:31:51;8.80;94.40
46816;DHT22;32787;53.316;8.670;2024-02-16T06:34:18;8.80;94.40
46816;DHT22;32787;53.316;8.670;2024-02-16T06:36:45;8.80;94.60
46816;DHT22;32787;53.316;8.670;2024-02-16T06:39:11;8.80;94.60
46816;DHT22;32787;53.316;8.670;2024-02-16T06:41:45;8.80;94.70
46816;DHT22;32787;53.316;8.670;2024-02-16T06:44:14;8.90;94.50
46816;DHT22;32787;53.316;8.670;2024-02-16T06:46:41;8.90;94.10
46816;DHT22;32787;53.316;8.670;2024-02-16T06:49:07;8.90;94.10
46816;DHT22;32787;53.316;8.670;2024-02-16T06:51:33;8.90;94.20
46816;DHT22;32787;53.316;8.670;2024-02-16T06:53:58;9.00;93.60
46816;DHT22;32787;53.316;8.670;2024-02-16T06:56:24;8.90;93.80
46816;DHT22;32787;53.316;8.670;2024-02-16T06:58:50;8.90;93.70
46816;DHT22;32787;53.316;8.670;2024-02-16T07:01:16;8.90;93.90
46816;DHT22;32787;53.316;8.670;2024-02-16T07:03:43;9.00;93.80
46816;DHT22;32787;53.316;8.670;2024-02-16T07:06:09;9.20;93.50
46816;DHT22;32787;53.316;8.670;2024-02-16T07:08:44;9.50;93.40
46816;DHT22;32787;53.316;8.670;2024-02-16T07:11:10;9.70;92.70
46816;DHT22;32787;53.316;8.670;2024-02-16T07:13:41;9.80;92.30
46816;DHT22;32787;53.316;8.670;2024-02-16T07:16:10;10.10;91.90
46816;DHT22;32787;53.316;8.670;2024-02-16T07:18:36;10.10;91.40
46816;DHT22;32787;53.316;8.670;2024-02-16T07:21:02;10.30;91.00
46816;DHT22;32787;53.316;8.670;2024-02-16T07:23:28;10.30;90.90
46816;DHT22;32787;53.316;8.670;2024-02-16T07:25:57;10.50;90.70
46816;DHT22;32787;53.316;8.670;2024-02-16T07:28:24;10.60;90.00
46816;DHT22;32787;53.316;8.670;2024-02-16T07:30:50;10.80;89.50
46816;DHT22;32787;53.316;8.670;2024-02-16T07:33:17;10.90;89.30
46816;DHT22;32787;53.316;8.670;2024-02-16T07:35:43;11.00;89.00
46816;DHT22;32787;53.316;8.670;2024-02-16T07:38:10;11.10;88.80
46816;DHT22;32787;53.316;8.670;2024-02-16T07:40:35;11.20;88.70
46816;DHT22;32787;53.316;8.670;2024-02-16T07:43:01;11.30;88.20
46816;DHT22;32787;53.316;8.670;2024-02-16T07:45:28;11.20;88.10
46816;DHT22;32787;53.316;8.670;2024-02-16T07:47:54;11.40;87.40
46816;DHT22;32787;53.316;8.670;2024-02-16T07:50:20;11.50;87.50
46816;DHT22;32787;53.316;8.670;2024-02-16T07:52:47;11.60;87.30
46816;DHT22;32787;53.316;8.670;2024-02-16T07:55:13;11.80;86.10
46816;DHT22;32787;53.316;8.670;2024-02-16T07:57:39;11.70;86.70
46816;DHT22;32787;53.316;8.670;2024-02-16T08:00:05;11.80;86.10
46816;DHT22;32787;53.316;8.670;2024-02-16T08:02:31;11.80;86.20
46816;DHT22;32787;53.316;8.670;2024-02-16T08:04:57;12.00;85.60
46816;DHT22;32787;53.316;8.670;2024-02-16T08:07:23;12.10;85.50
46816;DHT22;32787;53.316;8.670;2024-02-16T08:09:49;12.20;84.90
46816;DHT22;32787;53.316;8.670;2024-02-16T08:12:15;12.20;85.20
46816;DHT22;32787;53.316;8.670;2024-02-16T08:14:40;12.10;85.60
46816;DHT22;32787;53.316;8.670;2024-02-16T08:17:07;12.10;85.70
46816;DHT22;32787;53.316;8.670;2024-02-16T08:19:34;12.10;85.20
46816;DHT22;32787;53.316;8.670;2024-02-16T08:22:01;12.30;84.90
46816;DHT22;32787;53.316;8.670;2024-02-16T08:24:27;12.30;84.80
46816;DHT22;32787;53.316;8.670;2024-02-16T08:26:53;12.30;84.50
46816;DHT22;32787;53.316;8.670;2024-02-16T08:29:18;12.40;84.10
46816;DHT22;32787;53.316;8.670;2024-02-16T08:31:47;12.50;84.70
46816;DHT22;32787;53.316;8.670;2024-02-16T08:34:13;12.60;84.00
46816;DHT22;32787;53.316;8.670;2024-02-16T08:36:44;12.60;83.80
46816;DHT22;32787;53.316;8.670;2024-02-16T08:39:09;12.70;83.70
46816;DHT22;32787;53.316;8.670;2024-02-16T08:41:37;12.60;83.70
46816;DHT22;32787;53.316;8.670;2024-02-16T08:44:03;12.80;83.00
46816;DHT22;32787;53.316;8.670;2024-02-16T08:46:29;12.80;82.90
46816;DHT22;32787;53.316;8.670;2024-02-16T08:48:55;12.80;82.80
46816;DHT22;32787;53.316;8.670;2024-02-16T08:51:21;12.90;82.70
46816;DHT22;32787;53.316;8.670;2024-02-16T08:53:46;13.10;82.20
46816;DHT22;32787;53.316;8.670;2024-02-16T08:56:12;13.10;82.40
46816;DHT22;32787;53.316;8.670;2024-02-16T08:58:38;13.10;82.00
46816;DHT22;32787;53.316;8.670;2024-02-16T09:01:05;13.10;81.70
46816;DHT22;32787;53.316;8.670;2024-02-16T09:03:30;13.00;82.60
46816;DHT22;32787;53.316;8.670;2024-02-16T09:06:02;13.00;82.30
46816;DHT22;32787;53.316;8.670;2024-02-16T09:08:28;12.90;82.70
46816;DHT22;32787;53.316;8.670;2024-02-16T09:11:01;13.10;82.70
46816;DHT22;32787;53.316;8.670;2024-02-16T09:13:35;13.20;82.10
46816;DHT22;32787;53.316;8.670;2024-02-16T09:16:02;13.10;82.70
46816;DHT22;32787;53.316;8.670;2024-02-16T09:18:29;13.10;82.00
46816;DHT22;32787;53.316;8.670;2024-02-16T09:20:55;13.20;81.90
46816;DHT22;32787;53.316;8.670;2024-02-16T09:23:20;13.20;82.00
46816;DHT22;32787;53.316;8.670;2024-02-16T09:25:46;13.30;82.40
46816;DHT22;32787;53.316;8.670;2024-02-16T09:28:12;13.30;82.80
46816;DHT22;32787;53.316;8.670;2024-02-16T09:30:38;13.30;83.10
46816;DHT22;32787;53.316;8.670;2024-02-16T09:33:04;13.40;82.40
46816;DHT22;32787;53.316;8.670;2024-02-16T09:35:30;13.60;81.40
46816;DHT22;32787;53.316;8.670;2024-02-16T09:37:56;13.60;81.60
46816;DHT22;32787;53.316;8.670;2024-02-16T09:40:22;13.70;81.80
46816;DHT22;32787;53.316;8.670;2024-02-16T09:42:48;13.70;81.60
46816;DHT22;32787;53.316;8.670;2024-02-16T09:45:15;13.90;81.00
46816;DHT22;32787;53.316;8.670;2024-02-16T09:47:43;13.90;80.80
46816;DHT22;32787;53.316;8.670;2024-02-16T09:50:09;14.00;80.70
46816;DHT22;32787;53.316;8.670;2024-02-16T09:52:36;13.90;80.60
46816;DHT22;32787;53.316;8.670;2024-02-16T09:55:02;13.70;81.90
46816;DHT22;32787;53.316;8.670;2024-02-16T09:57:28;13.80;81.70
46816;DHT22;32787;53.316;8.670;2024-02-16T09:59:54;14.00;81.40
46816;DHT22;32787;53.316;8.670;2024-02-16T10:02:20;14.00;81.40
46816;DHT22;32787;53.316;8.670;2024-02-16T10:04:46;14.00;80.00
46816;DHT22;32787;53.316;8.670;2024-02-16T10:07:12;14.00;80.60
46816;DHT22;32787;53.316;8.670;2024-02-16T10:09:39;14.10;80.50
46816;DHT22;32787;53.316;8.670;2024-02-16T10:12:06;14.20;80.80
46816;DHT22;32787;53.316;8.670;2024-02-16T10:14:32;14.30;81.00
46816;DHT22;32787;53.316;8.670;2024-02-16T10:17:05;14.20;80.90
46816;DHT22;32787;53.316;8.670;2024-02-16T10:19:32;14.30;80.30
46816;DHT22;32787;53.316;8.670;2024-02-16T10:22:12;14.30;80.00
46816;DHT22;32787;53.316;8.670;2024-02-16T10:24:38;14.30;80.50
46816;DHT22;32787;53.316;8.670;2024-02-16T10:27:05;14.30;80.40
46816;DHT22;32787;53.316;8.670;2024-02-16T10:29:32;14.30;80.60
46816;DHT22;32787;53.316;8.670;2024-02-16T10:31:59;14.40;80.60
46816;DHT22;32787;53.316;8.670;2024-02-16T10:34:26;14.50;79.90
46816;DHT22;32787;53.316;8.670;2024-02-16T10:36:54;14.50;80.10
46816;DHT22;32787;53.316;8.670;2024-02-16T10:39:20;14.60;80.60
46816;DHT22;32787;53.316;8.670;2024-02-16T10:41:47;14.50;80.40
46816;DHT22;32787;53.316;8.670;2024-02-16T10:44:14;14.50;80.40
46816;DHT22;32787;53.316;8.670;2024-02-16T10:46:40;14.50;81.00
46816;DHT22;32787;53.316;8.670;2024-02-16T10:49:05;14.70;80.50
46816;DHT22;32787;53.316;8.670;2024-02-16T10:51:33;14.80;80.00
46816;DHT22;32787;53.316;8.670;2024-02-16T10:54:01;14.70;80.40
46816;DHT22;32787;53.316;8.670;2024-02-16T10:56:36;14.90;80.20
46816;DHT22;32787;53.316;8.670;2024-02-16T10:59:08;15.00;79.70
46816;DHT22;32787;53.316;8.670;2024-02-16T11:01:42;15.10;79.50
46816;DHT22;32787;53.316;8.670;2024-02-16T11:04:11;15.10;79.40
46816;DHT22;32787;53.316;8.670;2024-02-16T11:06:53;15.10;79.30
46816;DHT22;32787;53.316;8.670;2024-02-16T11:09:39;15.20;79.30
46816;DHT22;32787;53.316;8.670;2024-02-16T11:12:06;15.30;79.70
46816;DHT22;32787;53.316;8.670;2024-02-16T11:14:42;15.20;79.50
46816;DHT22;32787;53.316;8.670;2024-02-16T11:17:12;15.40;79.70
46816;DHT22;32787;53.316;8.670;2024-02-16T11:19:45;15.30;79.80
46816;DHT22;32787;53.316;8.670;2024-02-16T11:22:15;15.30;79.60
46816;DHT22;32787;53.316;8.670;2024-02-16T11:24:46;15.30;79.70
46816;DHT22;32787;53.316;8.670;2024-02-16T11:27:13;15.10;79.80
46816;DHT22;32787;53.316;8.670;2024-02-16T11:29:41;15.10;79.70
46816;DHT22;32787;53.316;8.670;2024-02-16T11:32:07;15.20;80.80
46816;DHT22;32787;53.316;8.670;2024-02-16T11:34:33;15.20;81.00
46816;DHT22;32787;53.316;8.670;2024-02-16T11:37:03;15.20;80.30
46816;DHT22;32787;53.316;8.670;2024-02-16T11:39:30;15.20;80.20
46816;DHT22;32787;53.316;8.670;2024-02-16T11:42:11;15.20;80.10
46816;DHT22;32787;53.316;8.670;2024-02-16T11:44:37;15.20;80.50
46816;DHT22;32787;53.316;8.670;2024-02-16T11:47:06;15.20;80.30
46816;DHT22;32787;53.316;8.670;2024-02-16T11:49:36;15.10;80.80
46816;DHT22;32787;53.316;8.670;2024-02-16T11:52:04;15.20;80.20
46816;DHT22;32787;53.316;8.670;2024-02-16T11:54:30;15.30;80.30
46816;DHT22;32787;53.316;8.670;2024-02-16T11:56:57;15.30;80.30
46816;DHT22;32787;53.316;8.670;2024-02-16T11:59:22;15.30;80.50
46816;DHT22;32787;53.316;8.670;2024-02-16T12:04:24;15.30;80.40
46816;DHT22;32787;53.316;8.670;2024-02-16T12:06:56;15.30;80.50
46816;DHT22;32787;53.316;8.670;2024-02-16T12:09:22;15.30;81.40
46816;DHT22;32787;53.316;8.670;2024-02-16T12:11:49;15.40;81.10
46816;DHT22;32787;53.316;8.670;2024-02-16T12:14:19;15.30;80.30
46816;DHT22;32787;53.316;8.670;2024-02-16T12:16:55;15.40;81.30
46816;DHT22;32787;53.316;8.670;2024-02-16T12:19:22;15.30;80.40
46816;DHT22;32787;53.316;8.670;2024-02-16T12:21:57;15.30;80.80
46816;DHT22;32787;53.316;8.670;2024-02-16T12:24:23;15.30;81.30
46816;DHT22;32787;53.316;8.670;2024-02-16T12:26:49;15.40;81.00
46816;DHT22;32787;53.316;8.670;2024-02-16T12:29:15;15.40;80.60
46816;DHT22;32787;53.316;8.670;2024-02-16T12:31:45;15.40;80.40
46816;DHT22;32787;53.316;8.670;2024-02-16T12:34:13;15.50;80.80
46816;DHT22;32787;53.316;8.670;2024-02-16T12:36:39;15.20;80.90
46816;DHT22;32787;53.316;8.670;2024-02-16T12:39:08;15.10;81.50
46816;DHT22;32787;53.316;8.670;2024-02-16T12:41:38;15.10;82.20
46816;DHT22;32787;53.316;8.670;2024-02-16T12:44:04;15.10;81.80
46816;DHT22;32787;53.316;8.670;2024-02-16T12:46:31;15.00;81.80
46816;DHT22;32787;53.316;8.670;2024-02-16T12:48:57;15.10;82.10
46816;DHT22;32787;53.316;8.670;2024-02-16T12:51:23;15.30;82.00
46816;DHT22;32787;53.316;8.670;2024-02-16T12:53:49;15.30;81.60
46816;DHT22;32787;53.316;8.670;2024-02-16T12:56:15;15.20;81.90
46816;DHT22;32787;53.316;8.670;2024-02-16T12:58:40;15.20;82.10
46816;DHT22;32787;53.316;8.670;2024-02-16T13:01:06;15.20;81.60
46816;DHT22;32787;53.316;8.670;2024-02-16T13:03:36;15.10;82.30
46816;DHT22;32787;53.316;8.670;2024-02-16T13:06:02;15.00;82.30
46816;DHT22;32787;53.316;8.670;2024-02-16T13:08:31;14.90;82.80
46816;DHT22;32787;53.316;8.670;2024-02-16T13:10:57;14.80;83.20
46816;DHT22;32787;53.316;8.670;2024-02-16T13:13:23;14.60;84.30
46816;DHT22;32787;53.316;8.670;2024-02-16T13:15:49;14.40;84.90
46816;DHT22;32787;53.316;8.670;2024-02-16T13:18:15;14.30;85.60
46816;DHT22;32787;53.316;8.670;2024-02-16T13:20:41;14.30;86.00
46816;DHT22;32787;53.316;8.670;2024-02-16T13:23:07;14.30;85.60
46816;DHT22;32787;53.316;8.670;2024-02-16T13:25:33;14.30;85.80
46816;DHT22;32787;53.316;8.670;2024-02-16T13:27:58;14.30;85.10
46816;DHT22;32787;53.316;8.670;2024-02-16T13:30:25;14.30;85.40
46816;DHT22;32787;53.316;8.670;2024-02-16T13:32:53;14.30;85.60
46816;DHT22;32787;53.316;8.670;2024-02-16T13:35:19;14.20;85.50
46816;DHT22;32787;53.316;8.670;2024-02-16T13:37:44;14.20;85.70
46816;DHT22;32787;53.316;8.670;2024-02-16T13:40:10;14.10;85.50
46816;DHT22;32787;53.316;8.670;2024-02-16T13:42:40;14.10;85.40
46816;DHT22;32787;53.316;8.670;2024-02-16T13:45:06;14.00;85.90
46816;DHT22;32787;53.316;8.670;2024-02-16T13:47:32;14.00;86.10
46816;DHT22;32787;53.316;8.670;2024-02-16T13:49:58;13.70;87.30
46816;DHT22;32787;53.316;8.670;2024-02-16T13:52:25;13.40;88.80
46816;DHT22;32787;53.316;8.670;2024-02-16T13:54:51;13.20;90.10
46816;DHT22;32787;53.316;8.670;2024-02-16T13:57:17;13.00;90.70
46816;DHT22;32787;53.316;8.670;2024-02-16T13:59:43;12.90;91.20
46816;DHT22;32787;53.316;8.670;2024-02-16T14:02:09;12.80;91.90
46816;DHT22;32787;53.316;8.670;2024-02-16T14:04:36;12.70;92.00
46816;DHT22;32787;53.316;8.670;2024-02-16T14:07:02;12.70;92.40
46816;DHT22;32787;53.316;8.670;2024-02-16T14:09:28;12.70;92.70
46816;DHT22;32787;53.316;8.670;2024-02-16T14:11:54;12.70;92.80
46816;DHT22;32787;53.316;8.670;2024-02-16T14:14:21;12.60;93.10
46816;DHT22;32787;53.316;8.670;2024-02-16T14:16:47;12.70;93.10
46816;DHT22;32787;53.316;8.670;2024-02-16T14:19:13;12.60;93.20
46816;DHT22;32787;53.316;8.670;2024-02-16T14:21:38;12.70;93.00
46816;DHT22;32787;53.316;8.670;2024-02-16T14:24:04;12.60;93.30
46816;DHT22;32787;53.316;8.670;2024-02-16T14:26:30;12.60;93.40
46816;DHT22;32787;53.316;8.670;2024-02-16T14:28:56;12.70;93.30
46816;DHT22;32787;53.316;8.670;2024-02-16T14:31:22;12.70;93.40
46816;DHT22;32787;53.316;8.670;2024-02-16T14:33:48;12.70;93.30
46816;DHT22;32787;53.316;8.670;2024-02-16T14:36:15;12.70;93.30
46816;DHT22;32787;53.316;8.670;2024-02-16T14:38:40;12.60;93.30
46816;DHT22;32787;53.316;8.670;2024-02-16T14:41:06;12.60;93.30
46816;DHT22;32787;53.316;8.670;2024-02-16T14:43:34;12.50;93.60
46816;DHT22;32787;53.316;8.670;2024-02-16T14:46:00;12.50;93.60
46816;DHT22;32787;53.316;8.670;2024-02-16T14:48:26;12.50;93.70
46816;DHT22;32787;53.316;8.670;2024-02-16T14:50:53;12.50;93.80
46816;DHT22;32787;53.316;8.670;2024-02-16T14:53:19;12.50;93.80
46816;DHT22;32787;53.316;8.670;2024-02-16T14:55:46;12.40;93.80
46816;DHT22;32787;53.316;8.670;2024-02-16T14:58:12;12.40;93.90
46816;DHT22;32787;53.316;8.670;2024-02-16T15:00:38;12.40;93.90
46816;DHT22;32787;53.316;8.670;2024-02-16T15:03:04;12.40;93.80
46816;DHT22;32787;53.316;8.670;2024-02-16T15:05:30;12.40;93.60
46816;DHT22;32787;53.316;8.670;2024-02-16T15:07:56;12.30;93.50
46816;DHT22;32787;53.316;8.670;2024-02-16T15:10:21;12.40;93.50
46816;DHT22;32787;53.316;8.670;2024-02-16T15:12:47;12.40;93.40
46816;DHT22;32787;53.316;8.670;2024-02-16T15:15:13;12.40;93.20
46816;DHT22;32787;53.316;8.670;2024-02-16T15:17:39;12.40;93.30
46816;DHT22;32787;53.316;8.670;2024-02-16T15:20:06;12.40;93.00
46816;DHT22;32787;53.316;8.670;2024-02-16T15:22:32;12.40;92.90
46816;DHT22;32787;53.316;8.670;2024-02-16T15:24:58;12.30;92.70
46816;DHT22;32787;53.316;8.670;2024-02-16T15:27:24;12.30;92.80
46816;DHT22;32787;53.316;8.670;2024-02-16T15:29:51;12.20;92.90
46816;DHT22;32787;53.316;8.670;2024-02-16T15:32:16;12.10;93.10
46816;DHT22;32787;53.316;8.670;2024-02-16T15:34:43;11.90;93.80